Time;durP1;ratioP1;P1;durP2;ratioP2;P2;SDS_P1;SDS_P2;PMS_P1;PMS_P2;Temp;Humidity;BMP_temperature;BMP_pressure;BME280_temperature;BME280_humidity;BME280_pressure;Samples;Min_cycle;Max_cycle;Signal;HPM_P1;HPM_P2
2024/04/22 00:01:49;;;;;;;2.23;1.40;;;11.10;90.10;;;;;;5451722;26;20478;-47
2024/04/22 00:04:16;;;;;;;1.40;1.20;;;11.10;90.10;;;;;;5467145;26;20456;-47
2024/04/22 00:06:47;;;;;;;1.77;1.17;;;11.10;90.10;;;;;;5471386;26;20460;-48
2024/04/22 00:09:14;;;;;;;2.00;1.13;;;11.10;90.10;;;;;;5481652;26;20468;-48
2024/04/22 00:11:44;;;;;;;2.60;1.40;;;11.10;90.10;;;;;;5458696;26;20465;-48
2024/04/22 00:14:11;;;;;;;2.10;1.30;;;11.10;90.10;;;;;;5468966;26;20457;-48
2024/04/22 00:16:42;;;;;;;1.67;1.13;;;11.10;90.10;;;;;;5476860;26;20665;-48
2024/04/22 00:19:12;;;;;;;2.60;2.30;;;11.10;90.10;;;;;;5470974;26;20544;-49
2024/04/22 00:21:41;;;;;;;1.93;1.60;;;11.10;90.10;;;;;;5471987;26;20518;-48
2024/04/22 00:24:09;;;;;;;2.13;1.50;;;11.10;90.10;;;;;;5466890;26;20590;-50
2024/04/22 00:26:40;;;;;;;1.93;1.20;;;11.10;90.10;;;;;;5476931;26;20567;-48
2024/04/22 00:29:08;;;;;;;1.90;1.30;;;11.10;90.10;;;;;;5459051;26;20523;-47
2024/04/22 00:31:37;;;;;;;2.20;1.23;;;11.10;90.10;;;;;;5451617;26;20572;-50
2024/04/22 00:34:05;;;;;;;2.80;1.30;;;11.10;90.10;;;;;;5476706;26;21281;-47
2024/04/22 00:36:37;;;;;;;1.80;1.37;;;11.00;90.10;;;;;;5477251;26;21097;-48
2024/04/22 00:39:04;;;;;;;1.70;1.20;;;11.00;90.10;;;;;;5472650;26;20510;-48
2024/04/22 00:41:35;;;;;;;1.77;1.00;;;11.10;90.10;;;;;;5470286;26;20457;-48
2024/04/22 00:44:02;;;;;;;2.53;1.77;;;11.00;90.10;;;;;;5451242;25;20522;-48
2024/04/22 00:46:32;;;;;;;1.97;1.37;;;11.00;90.10;;;;;;5437691;26;20549;-48
2024/04/22 00:48:59;;;;;;;1.40;1.30;;;11.00;90.10;;;;;;5451413;26;20520;-48
2024/04/22 00:51:30;;;;;;;1.47;1.20;;;11.00;90.00;;;;;;5471220;26;20801;-48
2024/04/22 00:54:01;;;;;;;2.20;1.33;;;11.00;90.10;;;;;;5473578;26;20475;-49
2024/04/22 00:56:31;;;;;;;1.40;1.03;;;11.10;90.10;;;;;;5471849;26;21117;-47
2024/04/22 00:58:59;;;;;;;1.83;1.33;;;11.00;90.10;;;;;;5424711;26;20471;-46
2024/04/22 01:01:30;;;;;;;1.77;1.50;;;11.00;90.10;;;;;;5474510;26;20469;-48
2024/04/22 01:03:57;;;;;;;1.93;1.40;;;11.00;90.10;;;;;;5476731;26;20811;-48
2024/04/22 01:06:27;;;;;;;1.70;1.40;;;11.00;90.00;;;;;;5474888;26;20478;-49
2024/04/22 01:08:54;;;;;;;1.40;1.30;;;11.00;90.10;;;;;;5471515;26;20451;-50
2024/04/22 01:11:27;;;;;;;1.43;1.23;;;11.00;90.00;;;;;;5468690;26;20589;-49
2024/04/22 01:13:59;;;;;;;2.43;1.17;;;11.00;90.10;;;;;;5441972;26;20526;-48
2024/04/22 01:16:28;;;;;;;1.87;1.77;;;11.00;90.10;;;;;;5476683;26;20461;-49
2024/04/22 01:18:56;;;;;;;2.90;1.70;;;11.00;90.10;;;;;;5464282;26;20470;-48
2024/04/22 01:21:30;;;;;;;1.40;1.20;;;11.00;90.10;;;;;;5464804;26;20896;-47
2024/04/22 01:23:59;;;;;;;1.50;1.30;;;11.00;90.10;;;;;;5471481;26;20469;-50
2024/04/22 01:26:29;;;;;;;1.70;1.43;;;11.00;90.10;;;;;;5471463;26;20520;-48
2024/04/22 01:28:56;;;;;;;1.30;1.10;;;11.00;90.10;;;;;;5456580;26;20459;-48
2024/04/22 01:31:27;;;;;;;1.43;1.20;;;11.00;90.20;;;;;;5469082;26;20457;-47
2024/04/22 01:33:54;;;;;;;1.63;1.40;;;11.00;90.10;;;;;;5465696;26;20462;-48
2024/04/22 01:36:24;;;;;;;1.90;1.30;;;11.00;90.10;;;;;;5457404;26;20806;-47
2024/04/22 01:38:54;;;;;;;1.83;1.30;;;11.00;90.10;;;;;;5475060;26;20582;-52
2024/04/22 01:41:24;;;;;;;1.40;1.20;;;11.00;90.10;;;;;;5467227;26;20482;-48
2024/04/22 01:43:51;;;;;;;2.17;1.37;;;11.00;90.10;;;;;;5477403;26;21060;-48
2024/04/22 01:46:21;;;;;;;1.80;1.47;;;11.00;90.10;;;;;;5471817;26;20464;-49
2024/04/22 01:48:48;;;;;;;1.53;1.33;;;10.90;90.10;;;;;;5475825;26;21102;-48
2024/04/22 01:51:18;;;;;;;2.03;1.30;;;10.90;90.10;;;;;;5471893;26;20468;-49
2024/04/22 01:53:45;;;;;;;1.80;1.50;;;10.90;90.10;;;;;;5474021;26;20817;-47
2024/04/22 01:56:17;;;;;;;2.37;1.60;;;11.00;90.10;;;;;;5461703;26;20578;-47
2024/04/22 01:58:45;;;;;;;1.80;1.37;;;10.90;90.10;;;;;;5472569;26;20533;-49
2024/04/22 02:01:14;;;;;;;2.40;1.70;;;10.90;90.10;;;;;;5472889;26;20454;-48
2024/04/22 02:03:42;;;;;;;1.67;1.33;;;10.90;90.10;;;;;;5475479;26;20453;-48
2024/04/22 02:06:11;;;;;;;2.07;1.10;;;10.90;90.20;;;;;;5461826;26;20460;-48
2024/04/22 02:08:39;;;;;;;2.20;1.63;;;10.90;90.10;;;;;;5474691;26;20458;-48
2024/04/22 02:11:08;;;;;;;1.40;1.30;;;10.90;90.10;;;;;;5470276;26;20818;-49
2024/04/22 02:13:38;;;;;;;1.63;1.10;;;10.90;90.10;;;;;;5462683;26;20887;-51
2024/04/22 02:16:08;;;;;;;1.70;1.13;;;10.90;90.10;;;;;;5461440;26;20799;-48
2024/04/22 02:18:36;;;;;;;2.30;1.53;;;10.90;90.10;;;;;;5437288;26;20519;-46
2024/04/22 02:21:06;;;;;;;1.97;1.37;;;10.90;90.10;;;;;;5456652;26;20460;-48
2024/04/22 02:23:33;;;;;;;2.07;1.43;;;10.90;90.10;;;;;;5450707;26;20510;-49
2024/04/22 02:26:03;;;;;;;1.20;1.00;;;10.90;90.10;;;;;;5460511;26;20876;-47
2024/04/22 02:28:30;;;;;;;1.60;1.50;;;10.90;90.10;;;;;;5456940;26;20587;-46
2024/04/22 02:31:03;;;;;;;1.67;1.13;;;10.90;90.10;;;;;;5472051;26;20544;-47
2024/04/22 02:33:30;;;;;;;1.57;1.27;;;10.90;90.10;;;;;;5475298;26;20863;-49
2024/04/22 02:36:00;;;;;;;3.10;1.67;;;10.90;90.10;;;;;;5474191;26;20518;-49
2024/04/22 02:38:27;;;;;;;2.60;1.53;;;10.90;90.10;;;;;;5471371;26;20447;-49
2024/04/22 02:40:57;;;;;;;1.80;1.20;;;10.90;90.10;;;;;;5447631;26;20576;-48
2024/04/22 02:43:24;;;;;;;1.87;1.63;;;10.80;90.00;;;;;;5462957;26;20554;-47
2024/04/22 02:45:54;;;;;;;2.13;1.33;;;10.80;90.00;;;;;;5461078;26;20459;-48
2024/04/22 02:48:23;;;;;;;1.60;1.37;;;10.80;90.00;;;;;;5456373;26;20524;-49
2024/04/22 02:50:53;;;;;;;1.70;1.40;;;10.80;90.00;;;;;;5443064;26;20474;-48
2024/04/22 02:53:20;;;;;;;1.93;1.40;;;10.80;90.00;;;;;;5445756;26;20473;-48
2024/04/22 02:55:50;;;;;;;1.67;1.47;;;10.80;90.00;;;;;;5472017;26;20472;-48
2024/04/22 02:58:17;;;;;;;1.93;1.27;;;10.80;90.00;;;;;;5472954;26;20582;-48
2024/04/22 03:00:53;;;;;;;1.70;1.60;;;10.80;90.00;;;;;;5474122;26;21024;-48
2024/04/22 03:03:23;;;;;;;1.93;1.57;;;10.80;90.00;;;;;;5467052;26;21005;-48
2024/04/22 03:05:53;;;;;;;1.63;1.50;;;10.80;90.10;;;;;;5468346;26;20455;-48
2024/04/22 03:08:20;;;;;;;2.90;1.67;;;10.80;90.00;;;;;;5467878;26;20457;-48
2024/04/22 03:10:50;;;;;;;1.73;1.40;;;10.80;90.00;;;;;;5474258;26;20528;-50
2024/04/22 03:13:17;;;;;;;1.50;1.17;;;10.80;90.00;;;;;;5470324;26;20495;-48
2024/04/22 03:15:47;;;;;;;1.47;1.33;;;10.80;90.10;;;;;;5462333;26;21017;-48
2024/04/22 03:18:14;;;;;;;1.60;1.30;;;10.80;90.00;;;;;;5472137;26;20516;-48
2024/04/22 03:20:47;;;;;;;2.10;1.40;;;10.80;90.10;;;;;;5473484;26;20468;-49
2024/04/22 03:23:14;;;;;;;1.73;1.47;;;10.70;90.00;;;;;;5467172;26;20508;-46
2024/04/22 03:25:44;;;;;;;1.40;1.30;;;10.70;90.00;;;;;;5468883;26;20587;-48
2024/04/22 03:28:12;;;;;;;1.73;1.20;;;10.70;90.00;;;;;;5472178;26;20523;-48
2024/04/22 03:30:42;;;;;;;1.70;1.30;;;10.70;90.00;;;;;;5462055;26;20480;-47
2024/04/22 03:33:09;;;;;;;1.97;1.47;;;10.70;90.00;;;;;;5465772;26;20448;-46
2024/04/22 03:35:39;;;;;;;1.70;1.40;;;10.70;90.00;;;;;;5472282;26;20470;-47
2024/04/22 03:38:12;;;;;;;2.07;1.40;;;10.70;90.00;;;;;;5477273;26;20460;-47
2024/04/22 03:40:41;;;;;;;1.90;1.50;;;10.70;90.00;;;;;;5466560;26;20571;-47
2024/04/22 03:43:12;;;;;;;1.70;1.33;;;10.70;90.00;;;;;;5477630;26;21108;-47
2024/04/22 03:49:50;;;;;;;1.87;1.33;;;10.70;90.00;;;;;;5479716;26;20977;-47
2024/04/22 03:51:20;;;;;;;1.70;1.30;;;10.70;90.00;;;;;;5472657;26;20898;-47
2024/04/22 03:53:52;;;;;;;2.30;1.20;;;10.70;90.00;;;;;;5474931;26;20506;-48
2024/04/22 03:56:22;;;;;;;1.90;1.57;;;10.70;90.00;;;;;;5470764;26;20522;-48
2024/04/22 03:58:52;;;;;;;1.77;1.50;;;10.70;90.00;;;;;;5468823;26;20469;-48
2024/04/22 04:01:20;;;;;;;2.10;1.60;;;10.70;90.00;;;;;;5473711;26;20572;-47
2024/04/22 04:03:50;;;;;;;2.03;1.30;;;10.60;90.00;;;;;;5476812;26;20543;-47
2024/04/22 04:06:20;;;;;;;1.60;1.23;;;10.60;90.00;;;;;;5477753;26;20541;-47
2024/04/22 04:08:50;;;;;;;1.83;1.40;;;10.60;90.00;;;;;;5473948;26;20892;-47
2024/04/22 04:11:23;;;;;;;1.63;1.20;;;10.60;89.80;;;;;;5476152;26;20469;-47
2024/04/22 04:13:50;;;;;;;2.80;1.60;;;10.60;89.90;;;;;;5466110;26;20865;-46
2024/04/22 04:16:20;;;;;;;2.13;1.20;;;10.60;90.00;;;;;;5475604;26;20550;-48
2024/04/22 04:18:47;;;;;;;2.00;1.50;;;10.60;89.80;;;;;;5436062;26;20504;-47
2024/04/22 04:21:17;;;;;;;2.53;1.30;;;10.60;90.00;;;;;;5466988;26;20572;-47
2024/04/22 04:23:44;;;;;;;2.60;1.53;;;10.60;89.90;;;;;;5461723;26;20478;-47
2024/04/22 04:26:17;;;;;;;2.10;1.53;;;10.60;89.70;;;;;;5476623;26;20505;-47
2024/04/22 04:28:46;;;;;;;2.40;1.37;;;10.60;89.70;;;;;;5466319;26;21025;-47
2024/04/22 04:31:18;;;;;;;1.63;1.30;;;10.60;89.70;;;;;;5469813;26;20509;-47
2024/04/22 04:33:46;;;;;;;2.93;1.90;;;10.60;89.60;;;;;;5466572;26;20515;-47
2024/04/22 04:36:15;;;;;;;1.60;1.30;;;10.60;89.70;;;;;;5478420;26;20522;-47
2024/04/22 04:38:43;;;;;;;1.63;1.37;;;10.60;89.60;;;;;;5469162;26;20584;-47
2024/04/22 04:41:12;;;;;;;1.87;1.40;;;10.60;89.70;;;;;;5450290;26;20455;-47
2024/04/22 04:43:45;;;;;;;1.60;1.30;;;10.50;89.60;;;;;;5467387;26;20464;-47
2024/04/22 04:46:12;;;;;;;1.70;1.10;;;10.50;89.70;;;;;;5443345;26;21068;-47
2024/04/22 04:48:42;;;;;;;2.30;1.60;;;10.50;89.80;;;;;;5473590;25;20511;-47
2024/04/22 04:51:09;;;;;;;1.57;1.40;;;10.50;89.70;;;;;;5470507;26;21010;-47
2024/04/22 04:53:39;;;;;;;2.03;1.40;;;10.50;89.80;;;;;;5468574;26;20458;-47
2024/04/22 04:56:06;;;;;;;1.77;1.47;;;10.50;89.60;;;;;;5466180;26;20545;-48
2024/04/22 04:58:36;;;;;;;2.00;1.67;;;10.50;89.60;;;;;;5462041;26;21001;-46
2024/04/22 05:01:06;;;;;;;1.70;1.43;;;10.50;89.50;;;;;;5446039;26;21013;-47
2024/04/22 05:03:36;;;;;;;2.30;1.70;;;10.50;89.60;;;;;;5448131;26;20520;-47
2024/04/22 05:06:04;;;;;;;2.70;1.90;;;10.50;89.60;;;;;;5438146;26;20526;-47
2024/04/22 05:08:34;;;;;;;2.07;1.73;;;10.50;89.40;;;;;;5475202;26;20462;-46
2024/04/22 05:11:03;;;;;;;1.90;1.60;;;10.50;89.50;;;;;;5475389;26;20623;-46
2024/04/22 05:13:32;;;;;;;2.27;1.43;;;10.50;89.60;;;;;;5471963;26;20621;-47
2024/04/22 05:16:00;;;;;;;2.20;1.90;;;10.50;89.50;;;;;;5476532;26;20856;-47
2024/04/22 05:18:32;;;;;;;1.67;1.40;;;10.50;89.60;;;;;;5473840;26;20464;-46
2024/04/22 05:20:59;;;;;;;2.60;2.00;;;10.50;89.40;;;;;;5463974;26;20545;-47
2024/04/22 05:23:29;;;;;;;1.60;1.40;;;10.50;89.00;;;;;;5462429;26;20472;-47
2024/04/22 05:25:57;;;;;;;1.80;1.40;;;10.40;89.20;;;;;;5452140;26;21002;-47
2024/04/22 05:28:27;;;;;;;2.33;1.80;;;10.50;89.30;;;;;;5470956;26;20448;-47
2024/04/22 05:30:54;;;;;;;1.93;1.57;;;10.40;89.30;;;;;;5466755;26;20529;-46
2024/04/22 05:36:14;;;;;;;2.33;1.83;;;10.40;89.30;;;;;;5472894;26;20950;-47
2024/04/22 05:38:45;;;;;;;1.80;1.47;;;10.40;89.30;;;;;;5469958;26;20567;-46
2024/04/22 05:41:15;;;;;;;2.03;1.53;;;10.40;89.40;;;;;;5461770;26;20939;-47
2024/04/22 05:43:44;;;;;;;2.17;1.70;;;10.40;89.30;;;;;;5462881;26;21038;-46
2024/04/22 05:46:14;;;;;;;2.60;2.03;;;10.40;89.40;;;;;;5469418;26;20458;-47
2024/04/22 05:48:44;;;;;;;2.93;1.90;;;10.40;89.20;;;;;;5475396;26;20565;-46
2024/04/22 05:51:17;;;;;;;1.90;1.50;;;10.40;89.30;;;;;;5472460;26;20576;-47
2024/04/22 05:53:46;;;;;;;2.47;1.80;;;10.40;89.40;;;;;;5461361;26;20582;-47
2024/04/22 05:56:16;;;;;;;2.73;1.60;;;10.40;89.20;;;;;;5474082;26;20505;-46
2024/04/22 05:58:45;;;;;;;2.50;2.10;;;10.40;89.20;;;;;;5473300;26;20466;-48
2024/04/22 06:01:13;;;;;;;2.47;2.27;;;10.40;89.30;;;;;;5456884;26;20459;-48
2024/04/22 06:03:42;;;;;;;2.00;1.80;;;10.40;89.30;;;;;;5468109;26;20464;-47
2024/04/22 06:06:10;;;;;;;2.40;2.00;;;10.40;89.30;;;;;;5475954;26;20504;-47
2024/04/22 06:08:42;;;;;;;2.10;1.90;;;10.40;89.10;;;;;;5470902;26;20514;-47
2024/04/22 06:11:10;;;;;;;3.23;1.77;;;10.40;89.00;;;;;;5457124;26;21061;-47
2024/04/22 06:13:40;;;;;;;1.57;1.33;;;10.40;88.90;;;;;;5465950;26;20438;-47
2024/04/22 06:16:08;;;;;;;2.10;1.60;;;10.30;88.90;;;;;;5464625;26;20563;-48
2024/04/22 06:18:38;;;;;;;1.83;1.70;;;10.30;89.10;;;;;;5467204;26;20502;-46
2024/04/22 06:21:05;;;;;;;2.93;2.10;;;10.30;89.30;;;;;;5469646;26;20458;-47
2024/04/22 06:23:35;;;;;;;2.20;1.60;;;10.30;89.30;;;;;;5469377;26;20455;-49
2024/04/22 06:26:08;;;;;;;2.03;1.83;;;10.30;89.40;;;;;;5473999;26;20949;-47
2024/04/22 06:28:38;;;;;;;2.13;1.57;;;10.30;89.20;;;;;;5460976;26;20553;-49
2024/04/22 06:31:05;;;;;;;2.07;1.87;;;10.40;89.40;;;;;;5466538;26;20466;-47
2024/04/22 06:33:42;;;;;;;2.03;1.77;;;10.30;89.40;;;;;;5467178;26;20458;-49
2024/04/22 06:36:10;;;;;;;1.97;1.67;;;10.30;89.30;;;;;;5469846;26;20460;-48
2024/04/22 06:38:42;;;;;;;1.83;1.40;;;10.30;89.40;;;;;;5431019;26;20529;-48
2024/04/22 06:41:12;;;;;;;2.37;2.00;;;10.30;89.00;;;;;;5468506;26;20530;-49
2024/04/22 06:43:43;;;;;;;2.07;1.87;;;10.30;89.20;;;;;;5468260;26;20453;-48
2024/04/22 06:46:11;;;;;;;3.30;2.73;;;10.30;89.30;;;;;;5473420;25;20504;-48
2024/04/22 06:48:40;;;;;;;2.77;2.33;;;10.30;89.10;;;;;;5469216;26;20470;-48
2024/04/22 06:51:08;;;;;;;2.00;1.80;;;10.30;89.20;;;;;;5467293;26;20590;-47
2024/04/22 06:53:37;;;;;;;3.67;2.00;;;10.30;89.20;;;;;;5467025;26;20503;-47
2024/04/22 06:56:05;;;;;;;2.23;1.70;;;10.40;89.10;;;;;;5473459;26;20467;-47
2024/04/22 06:58:37;;;;;;;2.70;2.03;;;10.30;88.90;;;;;;5469430;26;20582;-48
2024/04/22 07:01:05;;;;;;;2.50;2.07;;;10.40;89.00;;;;;;5460021;26;20513;-48
2024/04/22 07:03:35;;;;;;;2.37;2.17;;;10.40;88.90;;;;;;5474356;26;20439;-47
2024/04/22 07:06:03;;;;;;;1.63;1.30;;;10.40;89.00;;;;;;5474780;26;20801;-47
2024/04/22 07:08:33;;;;;;;2.40;1.77;;;10.40;89.00;;;;;;5466173;26;20557;-48
2024/04/22 07:11:01;;;;;;;2.63;2.00;;;10.40;88.90;;;;;;5473849;26;20515;-49
2024/04/22 07:13:32;;;;;;;2.30;2.00;;;10.40;88.90;;;;;;5464910;26;21036;-48
2024/04/22 07:16:02;;;;;;;2.30;2.07;;;10.40;88.80;;;;;;5472811;26;20516;-48
2024/04/22 07:18:32;;;;;;;4.10;1.90;;;10.40;88.90;;;;;;5466289;26;20579;-48
2024/04/22 07:21:00;;;;;;;2.20;1.53;;;10.40;88.90;;;;;;5459102;26;20548;-47
2024/04/22 07:23:30;;;;;;;2.60;2.00;;;10.40;88.90;;;;;;5475362;26;20921;-47
2024/04/22 07:26:01;;;;;;;2.43;1.50;;;10.50;89.00;;;;;;5477633;26;21123;-47
2024/04/22 07:28:32;;;;;;;3.40;2.20;;;10.50;88.90;;;;;;5432272;26;20513;-47
2024/04/22 07:31:02;;;;;;;2.20;2.00;;;10.40;88.90;;;;;;5476473;26;20819;-48
2024/04/22 07:33:33;;;;;;;2.37;1.43;;;10.40;88.90;;;;;;5471647;26;20520;-49
2024/04/22 07:36:09;;;;;;;2.47;1.83;;;10.40;89.00;;;;;;5458821;26;20531;-48
2024/04/22 07:38:41;;;;;;;2.67;1.80;;;10.40;88.90;;;;;;5461305;26;20580;-47
2024/04/22 07:41:09;;;;;;;1.90;1.50;;;10.40;89.00;;;;;;5481505;26;20581;-47
2024/04/22 07:43:39;;;;;;;2.20;1.67;;;10.40;89.00;;;;;;5460880;26;20453;-48
2024/04/22 07:46:09;;;;;;;2.00;1.57;;;10.40;88.90;;;;;;5484698;26;20857;-48
2024/04/22 07:48:39;;;;;;;3.27;2.10;;;10.40;89.00;;;;;;5470240;26;20567;-48
2024/04/22 07:51:06;;;;;;;2.43;1.70;;;10.40;89.00;;;;;;5469503;26;21026;-47
2024/04/22 07:53:37;;;;;;;1.67;1.50;;;10.40;89.10;;;;;;5473101;26;20443;-47
2024/04/22 07:56:11;;;;;;;1.80;1.57;;;10.40;89.10;;;;;;5477169;26;20463;-47
2024/04/22 07:58:42;;;;;;;2.80;1.67;;;10.40;89.00;;;;;;5467630;26;20451;-48
2024/04/22 08:01:12;;;;;;;2.80;2.17;;;10.50;89.10;;;;;;5471123;26;20592;-49
2024/04/22 08:03:43;;;;;;;6.20;5.60;;;10.40;88.80;;;;;;5470895;26;21167;-47
2024/04/22 08:06:19;;;;;;;6.40;3.90;;;10.40;85.40;;;;;;5464393;26;20897;-48
2024/04/22 08:08:46;;;;;;;3.90;3.50;;;10.40;86.50;;;;;;5471491;26;20458;-49
2024/04/22 08:11:17;;;;;;;4.40;4.00;;;10.40;87.10;;;;;;5468258;26;21141;-47
2024/04/22 08:13:44;;;;;;;4.37;3.80;;;10.40;87.50;;;;;;5464161;26;20841;-51
2024/04/22 08:16:17;;;;;;;4.80;3.63;;;10.40;87.50;;;;;;5452484;26;20456;-48
2024/04/22 08:18:44;;;;;;;3.83;3.20;;;10.40;87.50;;;;;;5459332;26;20824;-48
2024/04/22 08:21:14;;;;;;;4.00;3.33;;;10.40;87.70;;;;;;5457447;26;20502;-47
2024/04/22 08:23:44;;;;;;;3.80;3.50;;;10.40;87.70;;;;;;5438725;26;20459;-47
2024/04/22 08:26:13;;;;;;;4.23;3.83;;;10.40;87.80;;;;;;5462832;26;20508;-48
2024/04/22 08:28:41;;;;;;;5.40;4.00;;;10.50;87.90;;;;;;5473084;26;20539;-48
2024/04/22 08:31:11;;;;;;;4.00;3.23;;;10.50;87.80;;;;;;5467576;26;20559;-46
2024/04/22 08:33:41;;;;;;;3.90;3.23;;;10.50;87.80;;;;;;5486852;26;20458;-47
2024/04/22 08:36:13;;;;;;;3.40;3.10;;;10.50;89.10;;;;;;5476808;26;20466;-47
2024/04/22 08:38:41;;;;;;;4.00;3.23;;;10.50;87.80;;;;;;5465684;26;20455;-48
2024/04/22 08:41:15;;;;;;;3.40;2.50;;;10.50;87.80;;;;;;5475054;25;20794;-47
2024/04/22 08:43:43;;;;;;;17.40;4.10;;;10.50;87.80;;;;;;5455396;26;20544;-48
2024/04/22 08:46:13;;;;;;;3.80;2.97;;;10.50;87.50;;;;;;5460318;26;20540;-48
2024/04/22 08:48:43;;;;;;;3.90;2.63;;;10.50;87.80;;;;;;5423635;26;20511;-48
2024/04/22 08:51:14;;;;;;;3.30;2.87;;;10.50;87.70;;;;;;5461598;26;21115;-47
2024/04/22 08:53:41;;;;;;;3.80;3.20;;;10.50;87.70;;;;;;5471694;26;20493;-47
2024/04/22 08:56:11;;;;;;;2.43;2.23;;;10.50;88.40;;;;;;5477710;26;20503;-48
2024/04/22 08:58:39;;;;;;;4.10;2.83;;;10.50;87.50;;;;;;5467788;26;20523;-50
2024/04/22 09:01:10;;;;;;;4.20;3.37;;;10.50;87.50;;;;;;5466625;26;20518;-48
2024/04/22 09:03:37;;;;;;;2.77;2.40;;;10.60;87.60;;;;;;5462924;26;20546;-49
2024/04/22 09:06:11;;;;;;;5.37;2.57;;;10.60;87.30;;;;;;5466178;26;20836;-48
2024/04/22 09:08:43;;;;;;;3.10;2.50;;;10.60;87.60;;;;;;5459795;26;20476;-48
2024/04/22 09:11:17;;;;;;;3.20;2.33;;;10.60;87.60;;;;;;5474493;26;20536;-48
2024/04/22 09:13:58;;;;;;;3.73;2.20;;;10.60;87.70;;;;;;5467547;26;20466;-49
2024/04/22 09:16:29;;;;;;;3.10;2.77;;;10.60;87.50;;;;;;5470473;26;20545;-47
2024/04/22 09:18:56;;;;;;;2.53;2.13;;;10.60;87.50;;;;;;5457013;26;20921;-47
2024/04/22 09:21:29;;;;;;;2.63;2.43;;;10.60;87.60;;;;;;5464757;26;20466;-49
2024/04/22 09:23:56;;;;;;;3.20;2.37;;;10.60;87.70;;;;;;5471629;26;20454;-48
2024/04/22 09:26:26;;;;;;;2.53;2.33;;;10.60;87.00;;;;;;5438489;26;20455;-48
2024/04/22 09:28:57;;;;;;;4.03;2.47;;;10.80;81.50;;;;;;5469474;26;20589;-48
2024/04/22 09:31:29;;;;;;;5.87;3.00;;;10.90;84.20;;;;;;5467479;26;20458;-48
2024/04/22 09:33:57;;;;;;;4.03;2.93;;;10.90;84.20;;;;;;5473976;26;20470;-47
2024/04/22 09:36:31;;;;;;;4.43;2.57;;;10.80;84.10;;;;;;5467254;26;20463;-48
2024/04/22 09:38:58;;;;;;;3.70;2.30;;;10.80;84.20;;;;;;5474060;26;20509;-48
2024/04/22 09:41:29;;;;;;;3.03;2.40;;;10.70;84.00;;;;;;5479731;26;20521;-48
2024/04/22 09:43:58;;;;;;;2.87;2.47;;;10.70;84.90;;;;;;5470425;26;20461;-48
2024/04/22 09:46:37;;;;;;;3.13;2.83;;;10.70;85.20;;;;;;5476925;26;20537;-48
2024/04/22 09:49:07;;;;;;;2.93;2.43;;;10.70;85.20;;;;;;5440506;26;20521;-48
2024/04/22 09:51:42;;;;;;;4.73;2.77;;;10.60;85.50;;;;;;5461544;26;20956;-46
2024/04/22 09:54:10;;;;;;;2.53;2.33;;;10.70;85.50;;;;;;5457503;26;20808;-49
2024/04/22 09:56:41;;;;;;;2.60;1.97;;;10.70;85.60;;;;;;5476151;26;20817;-48
2024/04/22 09:59:09;;;;;;;3.50;2.23;;;10.60;85.80;;;;;;5469115;26;20921;-47
2024/04/22 10:01:39;;;;;;;2.17;1.90;;;10.60;85.90;;;;;;5466549;26;20506;-47
2024/04/22 10:04:10;;;;;;;1.97;1.70;;;10.60;87.10;;;;;;5463128;26;20577;-48
2024/04/22 10:06:43;;;;;;;2.60;1.87;;;10.60;85.70;;;;;;5453330;26;20560;-48
2024/04/22 10:09:15;;;;;;;2.83;2.13;;;10.60;85.90;;;;;;5470420;26;20457;-50
2024/04/22 10:11:45;;;;;;;2.40;1.80;;;10.60;86.20;;;;;;5459027;26;20474;-49
2024/04/22 10:14:16;;;;;;;3.33;2.50;;;10.60;85.70;;;;;;5472448;26;20459;-48
2024/04/22 10:16:55;;;;;;;4.07;1.90;;;10.60;86.10;;;;;;5476314;26;20535;-47
2024/04/22 10:19:23;;;;;;;3.10;2.30;;;10.60;86.00;;;;;;5458798;26;20454;-48
2024/04/22 10:22:01;;;;;;;2.30;1.93;;;10.60;86.20;;;;;;5473132;26;20466;-48
2024/04/22 10:24:29;;;;;;;2.40;1.70;;;10.60;85.70;;;;;;5470924;26;20528;-47
2024/04/22 10:26:59;;;;;;;3.07;1.90;;;10.60;85.50;;;;;;5469088;26;20458;-48
2024/04/22 10:29:38;;;;;;;3.10;1.80;;;10.60;85.70;;;;;;5470406;26;20463;-47
2024/04/22 10:32:08;;;;;;;2.20;2.00;;;10.60;86.00;;;;;;5466024;26;20465;-49
2024/04/22 10:34:41;;;;;;;1.90;1.70;;;10.60;86.10;;;;;;5474641;25;20455;-49
2024/04/22 10:37:14;;;;;;;2.30;1.80;;;10.60;86.00;;;;;;5411518;26;20467;-49
2024/04/22 10:39:43;;;;;;;3.70;2.23;;;10.60;86.10;;;;;;5471782;26;20443;-48
2024/04/22 10:42:14;;;;;;;2.50;2.07;;;10.60;86.30;;;;;;5464546;26;20508;-48
2024/04/22 10:44:43;;;;;;;2.07;1.67;;;10.60;86.20;;;;;;5459220;26;20467;-47
2024/04/22 10:47:13;;;;;;;2.73;1.60;;;10.50;86.30;;;;;;5478225;26;20460;-48
2024/04/22 10:49:41;;;;;;;2.27;1.80;;;10.60;86.30;;;;;;5475485;26;20456;-47
2024/04/22 10:52:14;;;;;;;2.90;2.40;;;10.50;86.10;;;;;;5481613;26;20523;-48
2024/04/22 10:54:41;;;;;;;4.00;2.90;;;10.50;86.10;;;;;;5477183;26;20451;-49
2024/04/22 10:57:11;;;;;;;2.20;1.80;;;10.60;86.40;;;;;;5482022;26;20478;-48
2024/04/22 10:59:39;;;;;;;2.40;2.00;;;10.50;86.30;;;;;;5471962;26;20527;-47
2024/04/22 11:02:10;;;;;;;2.50;1.70;;;10.50;86.10;;;;;;5482428;26;20450;-49
2024/04/22 11:04:38;;;;;;;1.83;1.60;;;10.50;86.40;;;;;;5434972;26;20470;-48
2024/04/22 11:07:08;;;;;;;2.27;1.73;;;10.50;86.20;;;;;;5470231;26;20582;-48
2024/04/22 11:09:38;;;;;;;2.20;1.60;;;10.60;86.50;;;;;;5475966;26;20456;-48
2024/04/22 11:12:09;;;;;;;1.30;1.17;;;10.50;86.50;;;;;;5436187;26;20465;-48
2024/04/22 11:14:36;;;;;;;2.23;1.57;;;10.50;86.40;;;;;;5466486;26;20592;-47
2024/04/22 11:17:06;;;;;;;2.40;1.67;;;10.60;86.40;;;;;;5473076;26;20598;-47
2024/04/22 11:19:33;;;;;;;2.40;1.67;;;10.50;86.20;;;;;;5466635;26;20860;-47
2024/04/22 11:22:03;;;;;;;3.10;1.90;;;10.60;86.20;;;;;;5438034;26;20532;-48
2024/04/22 11:24:31;;;;;;;2.23;1.60;;;10.60;86.20;;;;;;5473289;26;20575;-48
2024/04/22 11:27:03;;;;;;;2.57;1.40;;;10.60;86.10;;;;;;5471087;26;20458;-48
2024/04/22 11:29:33;;;;;;;1.73;1.60;;;10.60;86.20;;;;;;5476905;26;21069;-47
2024/04/22 11:32:01;;;;;;;3.30;1.70;;;10.60;86.20;;;;;;5436923;26;20593;-47
2024/04/22 11:34:32;;;;;;;2.03;1.63;;;10.60;86.40;;;;;;5479599;26;20454;-48
2024/04/22 11:37:01;;;;;;;2.07;1.80;;;10.60;86.40;;;;;;5436993;26;20565;-48
2024/04/22 11:39:32;;;;;;;1.70;1.60;;;10.60;86.50;;;;;;5467266;26;20478;-48
2024/04/22 11:42:01;;;;;;;1.77;1.60;;;10.60;86.30;;;;;;5458103;26;21140;-48
2024/04/22 11:44:31;;;;;;;2.30;1.67;;;10.60;86.40;;;;;;5476904;26;20455;-48
2024/04/22 11:46:58;;;;;;;2.87;2.67;;;10.60;86.30;;;;;;5472551;26;20476;-48
2024/04/22 11:49:28;;;;;;;2.17;1.70;;;10.60;86.20;;;;;;5482461;26;20494;-48
2024/04/22 11:51:56;;;;;;;3.30;1.87;;;10.60;86.30;;;;;;5471714;26;21016;-48
2024/04/22 11:54:26;;;;;;;2.23;1.63;;;10.60;86.30;;;;;;5478755;26;20510;-48
2024/04/22 11:56:53;;;;;;;1.90;1.57;;;10.60;86.00;;;;;;5461288;26;21041;-48
2024/04/22 11:59:26;;;;;;;2.90;2.20;;;10.60;86.10;;;;;;5458146;26;20525;-49
2024/04/22 12:01:53;;;;;;;2.13;1.73;;;10.70;85.80;;;;;;5461806;26;20460;-48
2024/04/22 12:04:23;;;;;;;2.37;2.17;;;10.70;86.10;;;;;;5479596;26;20453;-50
2024/04/22 12:06:50;;;;;;;2.30;1.70;;;10.70;86.20;;;;;;5468203;26;20519;-51
2024/04/22 12:09:21;;;;;;;2.77;1.70;;;10.70;86.20;;;;;;5477600;26;20467;-48
2024/04/22 12:11:48;;;;;;;3.30;2.23;;;10.70;86.00;;;;;;5476015;26;20509;-49
2024/04/22 12:14:19;;;;;;;2.00;1.80;;;10.70;86.30;;;;;;5470566;26;20855;-49
2024/04/22 12:16:57;;;;;;;2.13;1.80;;;10.70;86.30;;;;;;5453143;26;20460;-49
2024/04/22 12:19:24;;;;;;;1.53;1.43;;;10.70;86.30;;;;;;5451591;26;20517;-48
2024/04/22 12:21:54;;;;;;;1.60;1.50;;;10.70;86.20;;;;;;5466452;26;20461;-48
2024/04/22 12:24:22;;;;;;;1.73;1.50;;;10.70;86.30;;;;;;5437376;26;20471;-48
2024/04/22 12:26:51;;;;;;;1.60;1.50;;;10.70;86.30;;;;;;5451371;26;20457;-48
2024/04/22 12:29:19;;;;;;;3.90;1.63;;;10.70;86.40;;;;;;5461148;26;20515;-50
2024/04/22 12:31:49;;;;;;;2.20;1.80;;;10.70;86.30;;;;;;5477078;26;20572;-47
2024/04/22 12:34:19;;;;;;;2.00;1.77;;;10.70;86.40;;;;;;5472574;26;20518;-49
2024/04/22 12:36:50;;;;;;;1.93;1.70;;;10.70;86.50;;;;;;5475190;26;20466;-48
2024/04/22 12:39:17;;;;;;;2.03;1.67;;;10.70;86.30;;;;;;5468180;26;20467;-48
2024/04/22 12:41:47;;;;;;;2.47;1.60;;;10.70;86.60;;;;;;5475492;26;20579;-48
2024/04/22 12:44:15;;;;;;;2.40;1.80;;;10.80;86.80;;;;;;5462980;26;20483;-48
2024/04/22 12:52:19;;;;;;;1.80;1.60;;;10.80;86.50;;;;;;5475707;26;20806;-47
2024/04/22 12:54:49;;;;;;;2.07;1.87;;;10.80;86.40;;;;;;5434836;26;20450;-47
2024/04/22 12:57:17;;;;;;;1.63;1.43;;;10.80;86.50;;;;;;5462636;26;20464;-47
2024/04/22 12:59:48;;;;;;;2.60;1.60;;;10.80;86.70;;;;;;5468688;26;20454;-47
2024/04/22 13:02:15;;;;;;;1.90;1.60;;;10.80;86.60;;;;;;5470442;26;20483;-47
2024/04/22 13:04:48;;;;;;;1.53;1.43;;;10.80;86.30;;;;;;5464067;26;20462;-48
2024/04/22 13:07:15;;;;;;;1.80;1.63;;;10.80;86.50;;;;;;5467635;26;20469;-47
2024/04/22 13:09:45;;;;;;;2.03;1.57;;;10.80;86.40;;;;;;5476477;26;20501;-47
2024/04/22 13:12:16;;;;;;;1.80;1.63;;;10.80;86.30;;;;;;5454494;26;20474;-47